Time;durP1;ratioP1;P1;durP2;ratioP2;P2;SDS_P1;SDS_P2;PMS_P1;PMS_P2;Temp;Humidity;BMP_temperature;BMP_pressure;BME280_temperature;BME280_humidity;BME280_pressure;Samples;Min_cycle;Max_cycle;Signal;HPM_P1;HPM_P2
2024/02/16 00:01:03;;;;;;;26.40;12.00;;;;;;;3.25;100.00;102852.17;106138;1257;61659;-59
2024/02/16 00:03:31;;;;;;;26.60;12.30;;;;;;;3.27;100.00;102850.09;106262;1251;60843;-59
2024/02/16 00:05:59;;;;;;;24.40;11.80;;;;;;;3.29;100.00;102853.00;106285;1258;72971;-59
2024/02/16 00:08:26;;;;;;;20.10;11.90;;;;;;;3.29;100.00;102854.95;106170;1256;64754;-59
2024/02/16 00:10:54;;;;;;;22.70;12.40;;;;;;;3.26;100.00;102856.98;106310;1256;72657;-59
2024/02/16 00:13:21;;;;;;;18.20;11.00;;;;;;;3.27;100.00;102851.67;106012;1258;62170;-59
2024/02/16 00:15:49;;;;;;;21.50;11.40;;;;;;;3.27;100.00;102852.59;106128;1255;60895;-59
2024/02/16 00:18:16;;;;;;;25.80;12.10;;;;;;;3.28;100.00;102854.94;106176;1258;73827;-59
2024/02/16 00:20:44;;;;;;;21.60;11.40;;;;;;;3.29;100.00;102854.05;106148;1267;69230;-59
2024/02/16 00:23:11;;;;;;;18.90;11.10;;;;;;;3.26;100.00;102853.98;106421;1259;71094;-59
2024/02/16 00:25:40;;;;;;;18.50;10.70;;;;;;;3.24;100.00;102847.52;106184;1260;61715;-59
2024/02/16 00:28:08;;;;;;;19.50;10.90;;;;;;;3.25;100.00;102848.98;107088;1254;60360;-59
2024/02/16 00:30:36;;;;;;;22.70;11.20;;;;;;;3.26;100.00;102848.10;106396;1256;73883;-59
2024/02/16 00:33:04;;;;;;;18.50;10.60;;;;;;;3.25;100.00;102847.72;106216;1259;66915;-59
2024/02/16 00:35:33;;;;;;;17.90;10.20;;;;;;;3.24;100.00;102844.13;106147;1257;73129;-59
2024/02/16 00:38:00;;;;;;;19.20;9.70;;;;;;;3.23;100.00;102845.52;106087;1259;61744;-59
2024/02/16 00:40:28;;;;;;;27.00;10.80;;;;;;;3.21;100.00;102845.14;106124;1258;60523;-59
2024/02/16 00:42:55;;;;;;;16.40;9.80;;;;;;;3.19;100.00;102842.59;106204;1253;72661;-59
2024/02/16 00:45:23;;;;;;;16.50;9.00;;;;;;;3.17;100.00;102842.16;106909;1256;67251;-59
2024/02/16 00:47:50;;;;;;;20.30;9.90;;;;;;;3.17;100.00;102843.38;106239;1259;71579;-59
2024/02/16 00:50:18;;;;;;;17.20;10.90;;;;;;;3.17;100.00;102843.23;106189;1270;61737;-59
2024/02/16 00:52:45;;;;;;;19.80;10.10;;;;;;;3.19;100.00;102843.98;106202;1258;60760;-59
2024/02/16 00:55:13;;;;;;;20.00;10.20;;;;;;;3.20;100.00;102845.08;106283;1260;73835;-59
2024/02/16 00:57:41;;;;;;;16.50;9.20;;;;;;;3.19;100.00;102843.45;106159;1257;67114;-59
2024/02/16 01:00:09;;;;;;;18.60;10.20;;;;;;;3.16;100.00;102837.69;106197;1257;70894;-59
2024/02/16 01:02:37;;;;;;;18.60;8.80;;;;;;;3.14;100.00;102834.10;106158;1258;60483;-59
2024/02/16 01:05:04;;;;;;;18.00;9.10;;;;;;;3.14;100.00;102833.73;106189;1257;61394;-59
2024/02/16 01:07:32;;;;;;;16.20;9.20;;;;;;;3.14;100.00;102831.77;109233;1251;71779;-59
2024/02/16 01:10:00;;;;;;;15.40;8.90;;;;;;;3.14;100.00;102833.54;109121;1253;65751;-59
2024/02/16 01:12:27;;;;;;;14.20;8.50;;;;;;;3.13;100.00;102828.73;107155;1264;73130;-59
2024/02/16 01:14:55;;;;;;;16.90;8.40;;;;;;;3.11;100.00;102828.48;109162;1251;61090;-59
2024/02/16 01:17:22;;;;;;;16.50;9.00;;;;;;;3.11;100.00;102826.86;109215;1253;58744;-59
2024/02/16 01:19:49;;;;;;;18.60;8.00;;;;;;;3.11;100.00;102823.35;108973;1259;72593;-60
2024/02/16 01:22:18;;;;;;;26.10;8.20;;;;;;;3.14;100.00;102825.20;109273;1256;67193;-59
2024/02/16 01:24:45;;;;;;;24.70;8.60;;;;;;;3.14;100.00;102824.51;109088;1254;71432;-60
2024/02/16 01:27:13;;;;;;;18.40;8.00;;;;;;;3.16;100.00;102824.73;109112;1254;60446;-59
2024/02/16 01:29:40;;;;;;;16.80;8.10;;;;;;;3.19;100.00;102827.84;109168;1254;59976;-57
2024/02/16 01:32:09;;;;;;;18.50;8.70;;;;;;;3.22;100.00;102828.64;106748;1251;73887;-60
2024/02/16 01:34:37;;;;;;;18.00;9.30;;;;;;;3.23;100.00;102821.93;106137;1261;65804;-59
2024/02/16 01:37:05;;;;;;;14.10;8.70;;;;;;;3.23;100.00;102825.30;109146;1252;72774;-59
2024/02/16 01:39:32;;;;;;;19.50;9.90;;;;;;;3.25;100.00;102826.59;108335;1256;61737;-59
2024/02/16 01:42:00;;;;;;;22.90;8.70;;;;;;;3.25;100.00;102827.48;106116;1261;60281;-59
2024/02/16 01:44:27;;;;;;;29.50;9.20;;;;;;;3.26;100.00;102828.75;107898;1256;73017;-60
2024/02/16 01:46:54;;;;;;;14.20;7.60;;;;;;;3.28;100.00;102835.05;106133;1252;66863;-59
2024/02/16 01:49:22;;;;;;;15.40;7.90;;;;;;;3.29;100.00;102836.85;106112;1257;72423;-60
2024/02/16 01:51:49;;;;;;;18.20;7.70;;;;;;;3.28;100.00;102833.98;106119;1264;61189;-59
2024/02/16 01:54:17;;;;;;;13.10;7.50;;;;;;;3.28;100.00;102837.34;106039;1263;61830;-59
2024/02/16 01:56:45;;;;;;;17.60;10.80;;;;;;;3.26;100.00;102837.27;106191;1252;73890;-59
2024/02/16 01:59:12;;;;;;;12.00;7.30;;;;;;;3.27;100.00;102836.44;106174;1258;66782;-59
2024/02/16 02:01:40;;;;;;;16.90;8.70;;;;;;;3.28;100.00;102834.32;106041;1272;72713;-59
2024/02/16 02:04:07;;;;;;;14.20;8.60;;;;;;;3.27;100.00;102829.52;106235;1254;61723;-59
2024/02/16 02:06:35;;;;;;;19.90;9.70;;;;;;;3.26;100.00;102831.07;107854;1251;64584;-59
2024/02/16 02:09:02;;;;;;;16.90;8.40;;;;;;;3.24;100.00;102827.80;106259;1251;72608;-59
2024/02/16 02:11:30;;;;;;;13.40;8.50;;;;;;;3.25;100.00;102833.14;106236;1252;66113;-59
2024/02/16 02:13:57;;;;;;;16.60;7.70;;;;;;;3.25;100.00;102835.13;106306;1254;70242;-59
2024/02/16 02:16:26;;;;;;;14.50;7.30;;;;;;;3.25;100.00;102832.61;106142;1267;60505;-59
2024/02/16 02:18:54;;;;;;;20.10;10.60;;;;;;;3.25;100.00;102834.23;106406;1252;60583;-59
2024/02/16 02:21:22;;;;;;;19.60;9.70;;;;;;;3.26;100.00;102829.98;106166;1267;73080;-59
2024/02/16 02:23:49;;;;;;;17.50;9.20;;;;;;;3.26;100.00;102833.56;106254;1257;65485;-59
2024/02/16 02:26:16;;;;;;;24.30;10.90;;;;;;;3.28;100.00;102835.75;106234;1255;71490;-59
2024/02/16 02:28:44;;;;;;;32.40;12.40;;;;;;;3.28;100.00;102839.66;106185;1267;60474;-59
2024/02/16 02:31:11;;;;;;;30.30;13.20;;;;;;;3.30;100.00;102843.99;106203;1257;60431;-57
2024/02/16 02:33:38;;;;;;;24.30;12.70;;;;;;;3.32;100.00;102849.52;106205;1268;72645;-58
2024/02/16 02:36:06;;;;;;;18.20;9.00;;;;;;;3.32;100.00;102855.73;106228;1258;65350;-58
2024/02/16 02:38:34;;;;;;;18.60;7.10;;;;;;;3.32;100.00;102858.39;106211;1258;70900;-58
2024/02/16 02:41:03;;;;;;;9.20;5.60;;;;;;;3.32;100.00;102856.63;106149;1260;61715;-58
2024/02/16 02:43:34;;;;;;;12.10;7.20;;;;;;;3.31;100.00;102859.83;106239;1257;61460;-58
2024/02/16 02:46:02;;;;;;;14.20;5.80;;;;;;;3.33;100.00;102856.29;106261;1253;72848;-58
2024/02/16 02:48:29;;;;;;;16.80;6.60;;;;;;;3.33;100.00;102856.66;106497;1253;64725;-54
2024/02/16 02:50:57;;;;;;;24.50;6.60;;;;;;;3.34;100.00;102854.39;106243;1254;71793;-54
2024/02/16 02:53:29;;;;;;;17.40;6.50;;;;;;;3.35;100.00;102860.45;106328;1259;61642;-54
2024/02/16 02:55:56;;;;;;;17.20;6.50;;;;;;;3.36;100.00;102867.23;106238;1251;61353;-58
2024/02/16 02:58:23;;;;;;;10.70;6.50;;;;;;;3.35;100.00;102866.66;106092;1267;78194;-64
2024/02/16 03:00:50;;;;;;;24.50;8.20;;;;;;;3.35;100.00;102865.95;106063;1258;66858;-64
2024/02/16 03:03:18;;;;;;;20.90;9.10;;;;;;;3.35;100.00;102865.44;106186;1257;71434;-61
2024/02/16 03:05:46;;;;;;;18.00;9.80;;;;;;;3.35;100.00;102865.60;106065;1251;61626;-62
2024/02/16 03:08:14;;;;;;;21.20;9.70;;;;;;;3.34;100.00;102871.42;106285;1251;60303;-62
2024/02/16 03:10:42;;;;;;;22.30;13.20;;;;;;;3.34;100.00;102873.73;106134;1251;73818;-64
2024/02/16 03:13:12;;;;;;;24.80;16.00;;;;;;;3.34;100.00;102876.05;106680;1257;65717;-64
2024/02/16 03:15:39;;;;;;;23.50;12.10;;;;;;;3.32;100.00;102880.41;106144;1257;74355;-64
2024/02/16 03:18:08;;;;;;;22.40;12.00;;;;;;;3.31;100.00;102880.75;106470;1260;60469;-63
2024/02/16 03:20:36;;;;;;;21.80;11.80;;;;;;;3.32;100.00;102885.02;106166;1262;60581;-63
2024/02/16 03:23:04;;;;;;;17.60;10.20;;;;;;;3.32;100.00;102883.63;106149;1257;72838;-62
2024/02/16 03:25:31;;;;;;;29.10;11.70;;;;;;;3.34;100.00;102884.57;106219;1251;65815;-62
2024/02/16 03:28:00;;;;;;;30.20;12.40;;;;;;;3.37;100.00;102888.56;106159;1257;71389;-63
2024/02/16 03:30:28;;;;;;;16.10;9.70;;;;;;;3.38;100.00;102892.88;106173;1267;60582;-63
2024/02/16 03:32:55;;;;;;;16.30;7.90;;;;;;;3.38;100.00;102894.46;106111;1257;60552;-62
2024/02/16 03:35:23;;;;;;;21.00;10.70;;;;;;;3.37;100.00;102900.98;106085;1258;73059;-64
2024/02/16 03:37:50;;;;;;;14.50;9.00;;;;;;;3.35;100.00;102898.45;106074;1257;65568;-63
2024/02/16 03:40:18;;;;;;;22.70;10.50;;;;;;;3.35;100.00;102903.41;106158;1260;71527;-63
2024/02/16 03:42:45;;;;;;;17.00;9.10;;;;;;;3.35;100.00;102913.35;106176;1256;61363;-61
2024/02/16 03:45:13;;;;;;;16.10;8.80;;;;;;;3.35;100.00;102912.64;106063;1254;60525;-64
2024/02/16 03:47:41;;;;;;;18.20;7.20;;;;;;;3.33;100.00;102911.16;106205;1258;72600;-64
2024/02/16 03:50:09;;;;;;;16.60;6.70;;;;;;;3.32;100.00;102910.41;106278;1254;65222;-63
2024/02/16 03:52:37;;;;;;;13.90;7.30;;;;;;;3.31;100.00;102906.14;106123;1257;72750;-64
2024/02/16 03:55:05;;;;;;;16.10;6.30;;;;;;;3.31;100.00;102903.46;106083;1257;61483;-63
2024/02/16 03:57:32;;;;;;;18.10;7.90;;;;;;;3.29;100.00;102902.18;106159;1254;60115;-64
2024/02/16 04:00:00;;;;;;;27.40;8.90;;;;;;;3.29;100.00;102906.62;106144;1257;72578;-65
2024/02/16 04:02:27;;;;;;;15.70;7.50;;;;;;;3.30;100.00;102906.45;106399;1254;65828;-65
2024/02/16 04:04:54;;;;;;;20.50;7.90;;;;;;;3.32;100.00;102915.73;106149;1251;72798;-64
2024/02/16 04:07:22;;;;;;;19.60;8.20;;;;;;;3.33;100.00;102921.28;106116;1255;60502;-63
2024/02/16 04:09:50;;;;;;;13.20;8.10;;;;;;;3.35;100.00;102924.18;106129;1258;61878;-60
2024/02/16 04:12:17;;;;;;;21.00;7.40;;;;;;;3.37;100.00;102924.96;106105;1259;72566;-60
2024/02/16 04:14:44;;;;;;;20.80;7.40;;;;;;;3.39;100.00;102926.46;106256;1257;65649;-65
2024/02/16 04:17:11;;;;;;;18.30;8.40;;;;;;;3.41;100.00;102931.48;106136;1253;73174;-64
2024/02/16 04:19:39;;;;;;;14.30;7.20;;;;;;;3.43;100.00;102932.77;106198;1254;60456;-62
2024/02/16 04:22:07;;;;;;;17.00;8.10;;;;;;;3.44;100.00;102931.92;106103;1254;60476;-61
2024/02/16 04:24:34;;;;;;;19.60;8.30;;;;;;;3.45;100.00;102933.92;106203;1258;73580;-64
2024/02/16 04:27:01;;;;;;;18.00;8.90;;;;;;;3.45;100.00;102935.16;106130;1260;67577;-61
2024/02/16 04:29:32;;;;;;;25.20;9.50;;;;;;;3.45;100.00;102944.39;106331;1267;71421;-63
2024/02/16 04:32:00;;;;;;;14.40;7.70;;;;;;;3.47;100.00;102945.52;109014;1253;60703;-64
2024/02/16 04:34:27;;;;;;;19.00;9.00;;;;;;;3.46;100.00;102947.98;109075;1254;59951;-60
2024/02/16 04:36:55;;;;;;;16.40;7.90;;;;;;;3.43;100.00;102949.84;109133;1254;72598;-64
2024/02/16 04:39:23;;;;;;;19.50;8.00;;;;;;;3.43;100.00;102941.63;109156;1253;65570;-65
2024/02/16 04:41:51;;;;;;;15.90;7.10;;;;;;;3.43;100.00;102942.90;109160;1253;72720;-65
2024/02/16 04:44:19;;;;;;;15.50;7.20;;;;;;;3.45;100.00;102944.73;108916;1254;155831;-65
2024/02/16 04:48:46;;;;;;;19.20;7.90;;;;;;;3.50;100.00;102956.79;102893;1304;600732;-65
2024/02/16 04:51:14;;;;;;;8.00;5.90;;;;;;;3.49;100.00;103093.30;105375;1269;59544;-65
2024/02/16 04:53:41;;;;;;;12.70;6.60;;;;;;;3.48;100.00;103084.05;105280;1267;59253;-65
2024/02/16 04:56:08;;;;;;;17.70;7.00;;;;;;;3.47;100.00;103072.81;105328;1267;72250;-65
2024/02/16 04:58:40;;;;;;;12.60;8.10;;;;;;;3.45;100.00;103067.23;105283;1280;65479;-65
2024/02/16 05:01:07;;;;;;;17.90;7.10;;;;;;;3.43;100.00;103065.02;105762;1268;72839;-65
2024/02/16 05:03:35;;;;;;;21.00;6.40;;;;;;;3.39;100.00;103051.09;105392;1267;173572;-65
2024/02/16 05:06:03;;;;;;;11.40;5.80;;;;;;;3.38;100.00;103047.85;105448;1268;59546;-65
2024/02/16 05:08:30;;;;;;;17.90;7.80;;;;;;;3.38;100.00;103040.92;107326;1268;72531;-65
2024/02/16 05:10:59;;;;;;;17.00;7.80;;;;;;;3.38;100.00;103040.91;105525;1270;65793;-65
2024/02/16 05:13:27;;;;;;;19.30;8.80;;;;;;;3.39;100.00;103043.08;105440;1267;71511;-65
2024/02/16 05:15:54;;;;;;;26.10;12.20;;;;;;;3.40;100.00;103041.70;105257;1271;61404;-65
2024/02/16 05:18:22;;;;;;;22.30;10.50;;;;;;;3.40;100.00;103038.14;105499;1264;60594;-65
2024/02/16 05:20:50;;;;;;;20.40;9.90;;;;;;;3.41;100.00;103041.02;106709;1263;70837;-65
2024/02/16 05:23:17;;;;;;;15.70;9.30;;;;;;;3.43;100.00;103041.78;105478;1270;67713;-65
2024/02/16 05:25:45;;;;;;;20.40;8.20;;;;;;;3.45;100.00;103039.92;105452;1270;71421;-65
2024/02/16 05:28:12;;;;;;;20.10;8.30;;;;;;;3.46;100.00;103038.88;105420;1275;62541;-65
2024/02/16 05:30:40;;;;;;;24.60;7.90;;;;;;;3.48;100.00;103041.77;105425;1269;60571;-65
2024/02/16 05:33:07;;;;;;;16.20;7.20;;;;;;;3.49;100.00;103049.09;105650;1266;73992;-65
2024/02/16 05:35:39;;;;;;;10.20;6.80;;;;;;;3.51;100.00;103046.30;105471;1269;65859;-65
2024/02/16 05:38:10;;;;;;;11.30;6.70;;;;;;;3.53;100.00;103052.94;105520;1263;71463;-65
2024/02/16 05:40:53;;;;;;;28.80;7.90;;;;;;;3.55;100.00;103058.02;105497;1264;61747;-65
2024/02/16 05:43:20;;;;;;;12.10;8.10;;;;;;;3.53;100.00;103069.81;105663;1264;60593;-65
2024/02/16 05:45:48;;;;;;;12.90;7.40;;;;;;;3.52;100.00;103053.25;105584;1274;71877;-66
2024/02/16 05:48:15;;;;;;;12.60;7.90;;;;;;;3.53;100.00;103053.46;105725;1279;66767;-65
2024/02/16 05:50:45;;;;;;;12.60;7.10;;;;;;;3.52;100.00;103056.13;105585;1267;71461;-65
2024/02/16 05:53:13;;;;;;;15.50;9.00;;;;;;;3.54;100.00;103061.33;105460;1263;62659;-65
2024/02/16 05:55:40;;;;;;;13.70;8.60;;;;;;;3.54;100.00;103061.15;105533;1262;59739;-65
2024/02/16 05:58:08;;;;;;;13.80;9.10;;;;;;;3.56;100.00;103062.46;105483;1279;72476;-65
2024/02/16 06:00:35;;;;;;;12.40;7.70;;;;;;;3.59;100.00;103061.29;105492;1264;65679;-65
2024/02/16 06:03:02;;;;;;;9.10;6.80;;;;;;;3.61;100.00;103066.02;105426;1279;73163;-65
2024/02/16 06:05:30;;;;;;;12.10;7.10;;;;;;;3.65;100.00;103075.20;105386;1271;60454;-65
2024/02/16 06:07:58;;;;;;;12.00;7.50;;;;;;;3.68;100.00;103080.60;105356;1270;60245;-65
2024/02/16 06:10:26;;;;;;;7.30;6.00;;;;;;;3.67;100.00;103078.98;105646;1269;73404;-65
2024/02/16 06:12:53;;;;;;;13.30;8.70;;;;;;;3.67;100.00;103087.86;105417;1270;66087;-64
2024/02/16 06:15:20;;;;;;;14.60;8.90;;;;;;;3.68;100.00;103088.59;105398;1263;72750;-64
2024/02/16 06:17:49;;;;;;;14.00;8.00;;;;;;;3.67;100.00;103084.48;105908;1267;59831;-64
2024/02/16 06:20:17;;;;;;;12.00;8.40;;;;;;;3.65;100.00;103076.63;105543;1269;60240;-64
2024/02/16 06:22:47;;;;;;;14.90;8.90;;;;;;;3.65;100.00;103078.21;105362;1264;72244;-65
2024/02/16 06:25:15;;;;;;;15.70;8.90;;;;;;;3.65;100.00;103075.56;105343;1270;66911;-65
2024/02/16 06:27:42;;;;;;;10.60;7.10;;;;;;;3.66;100.00;103073.27;105468;1274;71453;-65
2024/02/16 06:30:12;;;;;;;12.70;7.90;;;;;;;3.67;100.00;103067.95;105516;1264;60931;-65
2024/02/16 06:32:41;;;;;;;14.40;8.70;;;;;;;3.66;100.00;103064.57;105688;1264;60181;-65
2024/02/16 06:35:08;;;;;;;11.60;7.90;;;;;;;3.66;100.00;103061.02;105543;1270;71856;-65
2024/02/16 06:37:37;;;;;;;11.20;8.90;;;;;;;3.68;100.00;103064.80;105438;1264;66830;-64
2024/02/16 06:40:11;;;;;;;13.60;9.00;;;;;;;3.68;100.00;103072.09;105539;1270;70884;-66
2024/02/16 06:42:39;;;;;;;11.40;8.00;;;;;;;3.69;100.00;103082.61;105739;1267;62390;-66
2024/02/16 06:45:07;;;;;;;14.80;7.90;;;;;;;3.70;100.00;103080.33;105670;1266;60415;-65
2024/02/16 06:47:34;;;;;;;11.60;8.40;;;;;;;3.71;100.00;103081.45;106057;1266;73295;-65
2024/02/16 06:50:02;;;;;;;10.70;7.70;;;;;;;3.73;100.00;103082.58;105611;1263;65815;-65
2024/02/16 06:52:29;;;;;;;13.00;8.80;;;;;;;3.74;100.00;103087.75;107714;1266;71126;-66
2024/02/16 06:54:57;;;;;;;9.20;7.90;;;;;;;3.75;100.00;103092.20;105773;1261;62205;-66
2024/02/16 06:57:25;;;;;;;9.70;7.50;;;;;;;3.77;100.00;103098.32;105582;1269;59762;-66
2024/02/16 06:59:53;;;;;;;9.90;8.20;;;;;;;3.77;100.00;103105.41;105586;1267;72155;-65
2024/02/16 07:02:20;;;;;;;10.50;8.20;;;;;;;3.76;100.00;103112.13;107146;1266;66768;-66
2024/02/16 07:04:48;;;;;;;8.10;6.70;;;;;;;3.75;100.00;103115.81;105550;1266;71541;-66
2024/02/16 07:07:16;;;;;;;10.40;8.00;;;;;;;3.74;100.00;103116.17;106235;1266;62347;-65
2024/02/16 07:09:44;;;;;;;10.80;8.60;;;;;;;3.74;100.00;103115.09;105929;1267;60704;-65
2024/02/16 07:12:13;;;;;;;9.50;7.80;;;;;;;3.72;100.00;103111.85;105516;1260;73033;-65
2024/02/16 07:14:40;;;;;;;11.50;8.50;;;;;;;3.72;100.00;103112.18;105510;1261;67111;-64
2024/02/16 07:17:09;;;;;;;12.80;8.30;;;;;;;3.72;100.00;103114.00;105538;1267;70483;-65
2024/02/16 07:19:37;;;;;;;14.40;9.80;;;;;;;3.73;100.00;103120.23;105500;1266;61634;-65
2024/02/16 07:22:06;;;;;;;14.40;9.10;;;;;;;3.73;100.00;103122.88;107630;1263;61711;-65
2024/02/16 07:24:34;;;;;;;13.50;9.50;;;;;;;3.73;100.00;103123.44;108770;1256;72164;-65
2024/02/16 07:27:02;;;;;;;11.10;8.60;;;;;;;3.74;100.00;103125.77;108696;1257;66110;-65
2024/02/16 07:29:29;;;;;;;15.40;8.50;;;;;;;3.73;100.00;103126.63;108850;1254;70798;-65
2024/02/16 07:31:57;;;;;;;9.20;7.20;;;;;;;3.73;100.00;103126.81;108807;1254;61902;-65
2024/02/16 07:34:24;;;;;;;10.60;8.20;;;;;;;3.74;100.00;103129.66;108880;1254;60137;-65
2024/02/16 07:36:52;;;;;;;11.40;8.20;;;;;;;3.75;100.00;103129.33;108744;1254;71750;-65
2024/02/16 07:39:22;;;;;;;14.30;9.30;;;;;;;3.76;100.00;103132.58;108741;1254;65653;-66
2024/02/16 07:41:50;;;;;;;13.10;9.40;;;;;;;3.77;100.00;103138.66;106775;1260;71509;-66
2024/02/16 07:44:17;;;;;;;13.10;8.80;;;;;;;3.79;100.00;103141.38;106051;1254;60488;-64
2024/02/16 07:46:45;;;;;;;10.30;7.80;;;;;;;3.80;100.00;103145.51;106114;1254;59573;-66
2024/02/16 07:49:13;;;;;;;10.10;8.40;;;;;;;3.81;100.00;103142.68;108816;1254;73045;-66
2024/02/16 07:51:41;;;;;;;11.10;8.90;;;;;;;3.79;100.00;103143.34;107650;1254;65873;-66
2024/02/16 07:54:08;;;;;;;16.70;10.20;;;;;;;3.77;100.00;103140.42;105851;1262;70301;-67
2024/02/16 07:56:36;;;;;;;10.10;8.10;;;;;;;3.78;100.00;103147.21;108808;1254;58851;-67
2024/02/16 07:59:03;;;;;;;9.40;8.10;;;;;;;3.78;100.00;103149.72;108247;1254;60499;-65
2024/02/16 08:01:30;;;;;;;11.70;8.50;;;;;;;3.79;100.00;103151.85;106013;1257;73124;-65
2024/02/16 08:03:58;;;;;;;10.40;7.50;;;;;;;3.78;100.00;103156.28;106386;1254;65748;-64
2024/02/16 08:06:30;;;;;;;10.50;8.30;;;;;;;3.80;100.00;103167.89;107931;1256;71252;-66
2024/02/16 08:08:58;;;;;;;9.70;6.80;;;;;;;3.82;100.00;103164.03;107619;1256;61368;-67
2024/02/16 08:11:27;;;;;;;9.10;7.60;;;;;;;3.84;100.00;103163.55;106007;1261;60857;-65
2024/02/16 08:13:55;;;;;;;9.40;7.20;;;;;;;3.88;100.00;103175.41;106238;1254;72959;-65
2024/02/16 08:16:23;;;;;;;8.70;6.90;;;;;;;3.90;100.00;103179.04;107611;1257;65670;-65
2024/02/16 08:18:50;;;;;;;6.30;5.00;;;;;;;3.91;100.00;103179.27;105981;1260;71450;-65
2024/02/16 08:21:18;;;;;;;8.70;7.70;;;;;;;3.93;100.00;103179.86;106324;1260;60606;-65
2024/02/16 08:23:46;;;;;;;8.10;6.10;;;;;;;3.95;100.00;103181.69;105978;1261;59975;-65
2024/02/16 08:26:13;;;;;;;7.20;5.90;;;;;;;3.96;100.00;103181.91;106089;1254;71896;-66
2024/02/16 08:28:43;;;;;;;9.90;7.60;;;;;;;3.98;100.00;103180.73;106095;1254;67239;-65
2024/02/16 08:31:15;;;;;;;12.30;9.40;;;;;;;3.99;100.00;103195.71;106022;1257;71475;-65
2024/02/16 08:33:43;;;;;;;13.30;9.80;;;;;;;4.00;100.00;103203.00;105984;1260;59691;-65
2024/02/16 08:36:10;;;;;;;12.90;10.30;;;;;;;4.00;100.00;103199.45;106101;1260;60616;-66
2024/02/16 08:38:38;;;;;;;14.90;9.40;;;;;;;3.99;100.00;103192.88;106028;1260;73129;-65
2024/02/16 08:41:05;;;;;;;14.00;10.20;;;;;;;3.98;100.00;103190.17;106001;1254;67579;-65
2024/02/16 08:43:33;;;;;;;13.60;10.00;;;;;;;3.95;100.00;103188.80;106010;1264;73522;-66
2024/02/16 08:46:00;;;;;;;13.80;8.60;;;;;;;3.93;100.00;103186.23;106000;1266;60686;-66
2024/02/16 08:48:27;;;;;;;13.80;10.10;;;;;;;3.92;100.00;103183.91;106011;1257;60050;-66
2024/02/16 08:50:55;;;;;;;12.60;8.80;;;;;;;3.92;100.00;103178.04;105941;1254;73138;-65
2024/02/16 08:53:22;;;;;;;18.20;10.20;;;;;;;3.92;100.00;103176.79;105975;1256;65753;-66
2024/02/16 08:55:49;;;;;;;11.90;8.30;;;;;;;3.92;100.00;103173.27;105914;1254;71970;-66
2024/02/16 08:58:17;;;;;;;12.40;8.70;;;;;;;3.94;100.00;103174.40;105916;1260;60494;-65
2024/02/16 09:00:45;;;;;;;11.70;7.90;;;;;;;3.95;100.00;103175.13;106006;1254;60466;-66
2024/02/16 09:03:14;;;;;;;13.60;8.70;;;;;;;3.96;100.00;103178.38;106020;1268;72528;-64
2024/02/16 09:05:43;;;;;;;9.70;8.10;;;;;;;3.98;100.00;103182.89;106871;1258;65651;-64
2024/02/16 09:08:11;;;;;;;12.20;7.90;;;;;;;4.01;100.00;103187.59;106442;1258;71474;-65
2024/02/16 09:10:38;;;;;;;17.20;9.50;;;;;;;4.04;100.00;103189.13;106030;1254;61333;-65
2024/02/16 09:13:06;;;;;;;17.40;10.00;;;;;;;4.05;100.00;103190.58;106057;1260;61527;-66
2024/02/16 09:15:33;;;;;;;14.90;9.10;;;;;;;4.05;100.00;103189.36;105980;1254;73902;-66
2024/02/16 09:18:01;;;;;;;16.30;10.50;;;;;;;4.05;100.00;103195.92;105978;1260;66226;-66
2024/02/16 09:20:28;;;;;;;11.70;7.80;;;;;;;4.05;100.00;103190.57;106067;1254;72718;-66
2024/02/16 09:22:56;;;;;;;12.10;8.70;;;;;;;4.04;100.00;103190.36;105881;1257;63065;-66
2024/02/16 09:25:24;;;;;;;13.70;8.60;;;;;;;4.03;100.00;103191.39;106783;1254;60466;-66
2024/02/16 09:27:51;;;;;;;14.60;8.60;;;;;;;4.03;100.00;103191.92;106140;1260;72948;-66
2024/02/16 09:30:21;;;;;;;14.30;8.80;;;;;;;4.04;100.00;103192.66;106058;1260;65656;-66
2024/02/16 09:32:49;;;;;;;11.20;8.50;;;;;;;4.06;100.00;103200.74;106161;1260;71529;-67
2024/02/16 09:35:16;;;;;;;9.90;7.60;;;;;;;4.08;100.00;103198.48;105913;1257;60937;-67
2024/02/16 09:37:44;;;;;;;12.30;7.40;;;;;;;4.10;100.00;103199.77;106152;1256;60507;-66
2024/02/16 09:40:12;;;;;;;14.20;8.70;;;;;;;4.11;100.00;103210.50;105957;1260;73873;-67
2024/02/16 09:42:39;;;;;;;10.80;7.50;;;;;;;4.13;100.00;103224.26;105977;1258;67027;-66
2024/02/16 09:45:07;;;;;;;10.40;6.70;;;;;;;4.17;100.00;103229.00;105916;1260;72706;-66
2024/02/16 09:47:34;;;;;;;12.40;7.90;;;;;;;4.19;100.00;103231.73;105825;1259;60463;-66
2024/02/16 09:50:02;;;;;;;13.10;8.80;;;;;;;4.23;100.00;103233.10;106404;1266;60428;-66
2024/02/16 09:52:30;;;;;;;14.70;9.00;;;;;;;4.25;100.00;103231.39;106138;1257;74286;-67
2024/02/16 09:54:58;;;;;;;15.50;9.80;;;;;;;4.26;100.00;103233.38;105927;1259;65788;-67
2024/02/16 09:57:25;;;;;;;12.50;9.20;;;;;;;4.25;100.00;103231.07;105989;1261;71569;-66
2024/02/16 09:59:52;;;;;;;13.40;9.10;;;;;;;4.25;100.00;103230.00;105912;1264;60479;-66
2024/02/16 10:02:21;;;;;;;16.20;10.00;;;;;;;4.24;100.00;103228.72;105887;1260;62787;-67
2024/02/16 10:04:48;;;;;;;13.60;8.80;;;;;;;4.22;100.00;103229.54;107656;1257;74750;-66
2024/02/16 10:07:16;;;;;;;10.20;6.90;;;;;;;4.22;100.00;103225.06;106043;1260;66373;-66
2024/02/16 10:09:43;;;;;;;11.50;7.40;;;;;;;4.22;100.00;103227.40;105924;1257;72825;-66
2024/02/16 10:12:18;;;;;;;12.50;7.10;;;;;;;4.23;100.00;103229.20;106133;1261;60812;-67
2024/02/16 10:14:54;;;;;;;11.00;7.10;;;;;;;4.26;100.00;103244.59;107206;1258;60517;-67
2024/02/16 10:17:22;;;;;;;9.90;6.70;;;;;;;4.29;100.00;103252.15;108843;1256;75267;-67
2024/02/16 10:19:56;;;;;;;12.40;7.30;;;;;;;4.31;100.00;103244.96;108848;1257;65775;-67
2024/02/16 10:22:24;;;;;;;9.60;6.60;;;;;;;4.34;100.00;103259.42;108913;1256;72741;-67
2024/02/16 10:24:51;;;;;;;11.40;7.00;;;;;;;4.34;100.00;103249.13;108860;1256;59994;-67
2024/02/16 10:27:20;;;;;;;10.10;8.00;;;;;;;4.35;100.00;103250.57;108990;1256;58837;-67
2024/02/16 10:29:50;;;;;;;17.50;9.50;;;;;;;4.36;100.00;103251.30;108859;1256;72628;-67
2024/02/16 10:32:18;;;;;;;16.40;10.40;;;;;;;4.33;100.00;103252.84;108921;1255;65976;-67
2024/02/16 10:34:46;;;;;;;12.60;8.80;;;;;;;4.30;100.00;103245.78;108809;1257;74771;-67
2024/02/16 10:37:14;;;;;;;14.30;9.40;;;;;;;4.28;100.00;103240.21;108762;1257;61385;-66
2024/02/16 10:39:42;;;;;;;14.40;9.60;;;;;;;4.27;100.00;103238.73;108804;1256;60092;-67
2024/02/16 10:42:09;;;;;;;17.00;9.80;;;;;;;4.27;100.00;103240.69;108866;1259;72810;-66
2024/02/16 10:44:36;;;;;;;11.40;8.40;;;;;;;4.27;100.00;103242.48;108593;1259;67055;-66
2024/02/16 10:47:04;;;;;;;12.40;9.00;;;;;;;4.25;100.00;103235.14;108721;1256;71486;-67
2024/02/16 10:49:32;;;;;;;14.80;9.20;;;;;;;4.25;100.00;103233.54;109017;1255;59694;-66
2024/02/16 10:52:00;;;;;;;14.90;8.60;;;;;;;4.27;100.00;103234.84;106656;1261;60495;-66
2024/02/16 10:54:29;;;;;;;14.30;8.70;;;;;;;4.28;100.00;103231.84;105912;1262;73917;-67
2024/02/16 10:56:57;;;;;;;15.00;9.30;;;;;;;4.28;100.00;103238.63;106431;1260;65451;-66
2024/02/16 10:59:27;;;;;;;14.50;9.70;;;;;;;4.31;100.00;103235.33;106194;1260;72817;-65
2024/02/16 11:02:05;;;;;;;15.10;9.30;;;;;;;4.33;100.00;103236.12;106685;1259;60478;-66
2024/02/16 11:04:38;;;;;;;15.50;9.90;;;;;;;4.36;100.00;103243.30;105954;1259;61337;-65
2024/02/16 11:07:15;;;;;;;14.60;10.70;;;;;;;4.39;100.00;103243.95;106397;1257;74272;-66
2024/02/16 11:09:44;;;;;;;18.40;11.90;;;;;;;4.40;100.00;103250.58;108553;1254;66042;-66
2024/02/16 11:12:15;;;;;;;17.00;11.00;;;;;;;4.36;100.00;103238.35;107368;1253;72731;-65
2024/02/16 11:14:45;;;;;;;17.70;11.60;;;;;;;4.35;100.00;103239.37;107190;1253;61683;-66